Time;durP1;ratioP1;P1;durP2;ratioP2;P2;SDS_P1;SDS_P2;PMS_P1;PMS_P2;Temp;Humidity;BMP_temperature;BMP_pressure;BME280_temperature;BME280_humidity;BME280_pressure;Samples;Min_cycle;Max_cycle;Signal;HPM_P1;HPM_P2
2021/12/24 00:04:09;;;;;;;2.33;1.80;;;17.30;60.80;;;;;;10378803;28;20601;-72
2021/12/24 00:09:33;;;;;;;2.90;2.30;;;17.40;60.90;;;;;;10369807;28;20340;-72
2021/12/24 00:15:01;;;;;;;2.47;1.97;;;17.30;60.80;;;;;;10370710;28;20201;-72
2021/12/24 00:21:13;;;;;;;2.83;2.00;;;17.30;60.80;;;;;;10369179;28;20219;-72
2021/12/24 00:37:38;;;;;;;2.10;1.90;;;17.30;60.90;;;;;;10368903;28;20253;-73
2021/12/24 00:43:00;;;;;;;2.10;1.53;;;17.30;60.90;;;;;;10369266;28;20221;-72
2021/12/24 00:48:22;;;;;;;1.77;1.63;;;17.30;61.20;;;;;;10368421;28;20349;-72
2021/12/24 00:59:25;;;;;;;2.37;1.70;;;17.30;60.90;;;;;;10369240;28;20241;-72
2021/12/24 01:04:48;;;;;;;2.03;1.70;;;17.30;61.00;;;;;;10375579;28;20218;-73
2021/12/24 01:10:13;;;;;;;1.83;1.40;;;17.30;60.90;;;;;;10375683;28;20233;-72
2021/12/24 01:15:38;;;;;;;1.93;1.70;;;17.30;61.00;;;;;;10394147;28;20198;-73
2021/12/24 01:21:15;;;;;;;1.40;1.30;;;17.30;61.00;;;;;;10374940;28;20222;-72
2021/12/24 01:26:46;;;;;;;1.97;1.43;;;17.30;61.10;;;;;;10374366;28;20301;-72
2021/12/24 01:37:53;;;;;;;1.80;1.37;;;17.30;61.00;;;;;;10375384;28;20213;-72
2021/12/24 01:43:16;;;;;;;1.50;1.30;;;17.30;61.10;;;;;;10374732;28;20206;-72
2021/12/24 01:48:38;;;;;;;2.80;1.40;;;17.30;61.10;;;;;;10375260;28;20589;-72
2021/12/24 01:54:00;;;;;;;1.53;1.33;;;17.30;61.10;;;;;;10386416;28;20197;-73
2021/12/24 01:59:24;;;;;;;1.23;1.10;;;17.30;61.10;;;;;;10402529;28;20214;-73
2021/12/24 02:04:46;;;;;;;2.20;1.20;;;17.30;61.10;;;;;;10402801;28;20240;-72
2021/12/24 02:10:11;;;;;;;2.03;1.10;;;17.30;61.10;;;;;;10414703;28;20236;-72
2021/12/24 02:15:45;;;;;;;1.50;1.40;;;17.30;61.10;;;;;;10377306;28;20198;-72
2021/12/24 02:32:27;;;;;;;1.73;1.10;;;17.30;61.20;;;;;;10372890;28;20191;-73
2021/12/24 02:37:51;;;;;;;1.33;1.23;;;17.30;61.20;;;;;;10373909;28;20211;-72
2021/12/24 02:43:17;;;;;;;1.40;1.30;;;17.30;61.20;;;;;;10372542;28;20297;-72
2021/12/24 02:49:03;;;;;;;1.30;1.20;;;17.30;61.20;;;;;;10371978;28;20281;-73
2021/12/24 02:54:27;;;;;;;1.40;1.10;;;17.30;61.20;;;;;;10389526;28;20213;-73
2021/12/24 03:00:00;;;;;;;0.90;0.90;;;17.30;61.20;;;;;;10371858;28;20242;-75
2021/12/24 03:05:24;;;;;;;1.30;1.07;;;17.30;61.20;;;;;;10372973;28;20215;-75
2021/12/24 03:10:48;;;;;;;1.00;0.90;;;17.30;61.20;;;;;;10371535;28;20229;-74
2021/12/24 03:16:10;;;;;;;1.53;1.20;;;17.30;61.30;;;;;;10371065;28;20277;-74
2021/12/24 03:21:38;;;;;;;1.70;1.30;;;17.30;61.30;;;;;;10371494;28;20690;-74
2021/12/24 03:27:02;;;;;;;0.77;0.77;;;17.30;61.30;;;;;;10369982;28;20187;-74
2021/12/24 03:32:25;;;;;;;0.87;0.87;;;17.30;61.30;;;;;;10371510;28;20194;-74
2021/12/24 03:37:47;;;;;;;1.00;0.87;;;17.20;61.20;;;;;;10371143;28;20601;-75
2021/12/24 03:43:10;;;;;;;1.77;1.13;;;17.30;61.30;;;;;;10371232;28;20241;-75
2021/12/24 03:48:46;;;;;;;1.10;0.90;;;17.30;61.30;;;;;;10370309;28;20274;-74
2021/12/24 03:59:48;;;;;;;0.90;0.80;;;17.30;61.40;;;;;;10376387;28;20221;-74
2021/12/24 04:05:11;;;;;;;1.10;1.00;;;17.30;61.40;;;;;;10369724;28;20226;-74
2021/12/24 04:10:39;;;;;;;0.93;0.90;;;17.20;61.30;;;;;;10369348;28;20234;-75
2021/12/24 04:16:04;;;;;;;0.70;0.70;;;17.30;61.40;;;;;;10388410;28;20186;-74
2021/12/24 04:27:06;;;;;;;0.70;0.70;;;17.20;61.40;;;;;;10370754;28;20191;-74
2021/12/24 04:32:40;;;;;;;0.80;0.70;;;17.30;61.50;;;;;;10369477;28;20202;-75
2021/12/24 05:06:33;;;;;;;0.70;0.70;;;17.30;61.60;;;;;;10417685;28;20217;-75
2021/12/24 05:11:55;;;;;;;0.80;0.73;;;17.30;61.60;;;;;;10480355;22;20228;-66
2021/12/24 05:17:25;;;;;;;0.80;0.80;;;17.30;61.60;;;;;;10417739;28;20194;-66
2021/12/24 05:22:48;;;;;;;0.70;0.60;;;17.30;61.60;;;;;;10451204;28;20213;-66
2021/12/24 05:28:11;;;;;;;0.93;0.70;;;17.30;61.60;;;;;;10454680;28;20200;-66
2021/12/24 05:33:33;;;;;;;0.70;0.63;;;17.30;61.50;;;;;;10454838;28;20220;-66
2021/12/24 05:38:57;;;;;;;0.73;0.60;;;17.30;61.50;;;;;;10449646;28;20221;-65
2021/12/24 05:44:19;;;;;;;0.60;0.60;;;17.40;61.60;;;;;;10455294;28;20220;-66
2021/12/24 05:49:43;;;;;;;0.53;0.50;;;17.40;61.60;;;;;;10449060;28;20214;-66
2021/12/24 05:55:07;;;;;;;0.60;0.60;;;17.40;61.60;;;;;;10445079;28;20193;-66
2021/12/24 06:00:30;;;;;;;0.60;0.60;;;17.40;61.60;;;;;;10456476;28;20213;-66
2021/12/24 06:05:52;;;;;;;0.60;0.60;;;17.40;61.60;;;;;;10456068;28;20603;-67
2021/12/24 06:11:15;;;;;;;0.70;0.70;;;17.40;61.60;;;;;;10455952;28;20726;-66
2021/12/24 06:16:46;;;;;;;0.50;0.50;;;17.40;61.60;;;;;;10455883;28;20607;-66
2021/12/24 06:22:08;;;;;;;0.73;0.60;;;17.40;62.20;;;;;;10456606;28;20220;-66
2021/12/24 06:27:31;;;;;;;0.77;0.60;;;17.40;61.70;;;;;;10440280;28;20201;-66
2021/12/24 06:32:54;;;;;;;0.77;0.53;;;17.40;61.70;;;;;;10445076;28;20209;-66
2021/12/24 06:38:16;;;;;;;0.60;0.60;;;17.40;61.70;;;;;;10455045;28;20676;-66
2021/12/24 06:43:39;;;;;;;0.60;0.60;;;17.40;61.80;;;;;;10454628;28;20683;-66
2021/12/24 06:49:02;;;;;;;0.60;0.50;;;17.30;61.70;;;;;;10423675;28;20613;-66
2021/12/24 06:54:24;;;;;;;0.50;0.50;;;17.30;61.70;;;;;;10414068;28;20561;-65
2021/12/24 06:59:48;;;;;;;0.53;0.50;;;17.40;61.80;;;;;;10413559;28;20214;-66
2021/12/24 07:05:10;;;;;;;0.43;0.43;;;17.40;61.80;;;;;;10408810;28;20233;-68
2021/12/24 07:10:32;;;;;;;0.80;0.53;;;17.30;61.80;;;;;;10432965;28;20237;-66
2021/12/24 07:15:56;;;;;;;0.57;0.57;;;17.30;61.80;;;;;;10437520;28;20198;-66
2021/12/24 07:21:18;;;;;;;0.40;0.40;;;17.40;61.90;;;;;;10435866;28;20221;-66
2021/12/24 07:26:41;;;;;;;0.60;0.50;;;17.40;61.90;;;;;;10423129;28;20233;-66
2021/12/24 07:32:06;;;;;;;0.53;0.43;;;17.30;61.90;;;;;;10404563;28;20221;-66
2021/12/24 07:37:28;;;;;;;0.30;0.30;;;17.40;61.90;;;;;;10408194;28;20186;-65
2021/12/24 07:42:50;;;;;;;0.50;0.47;;;17.40;61.90;;;;;;10408193;28;20226;-67
2021/12/24 07:48:15;;;;;;;0.40;0.40;;;17.40;62.00;;;;;;10406837;28;20205;-66
2021/12/24 07:53:37;;;;;;;0.83;0.40;;;17.40;62.00;;;;;;10408008;28;20190;-66
2021/12/24 07:59:01;;;;;;;0.60;0.60;;;17.40;62.00;;;;;;10406960;28;20224;-66
2021/12/24 08:04:25;;;;;;;0.50;0.40;;;17.40;62.00;;;;;;10407591;28;20224;-66
2021/12/24 08:09:47;;;;;;;0.53;0.43;;;17.40;62.00;;;;;;10408770;28;20306;-68
2021/12/24 08:15:10;;;;;;;0.50;0.50;;;17.40;62.00;;;;;;10407023;28;20197;-69
2021/12/24 08:20:33;;;;;;;0.37;0.37;;;17.40;62.00;;;;;;10405929;28;20376;-68
2021/12/24 08:25:58;;;;;;;0.60;0.50;;;17.40;62.10;;;;;;10405165;28;20232;-71
2021/12/24 08:31:20;;;;;;;0.53;0.40;;;17.40;62.10;;;;;;10403067;28;20222;-67
2021/12/24 08:36:45;;;;;;;0.63;0.50;;;17.30;62.10;;;;;;10408505;28;20198;-67
2021/12/24 08:42:07;;;;;;;0.70;0.60;;;17.40;62.10;;;;;;10412744;28;20225;-66
2021/12/24 08:47:29;;;;;;;0.83;0.43;;;17.30;62.10;;;;;;10411609;28;20225;-67
2021/12/24 08:52:53;;;;;;;0.82;0.60;;;17.40;62.20;;;;;;10409194;28;20433;-66
2021/12/24 08:58:15;;;;;;;0.67;0.50;;;18.30;59.30;;;;;;10414303;28;20815;-69
2021/12/24 09:03:37;;;;;;;3.03;0.70;;;18.70;58.00;;;;;;10417782;28;20464;-68
2021/12/24 09:09:06;;;;;;;5.07;1.17;;;18.00;60.20;;;;;;10422312;28;20248;-69
2021/12/24 09:14:28;;;;;;;2.60;0.70;;;17.80;61.10;;;;;;10417798;28;20202;-69
2021/12/24 09:19:52;;;;;;;4.23;0.97;;;17.70;61.50;;;;;;10422791;28;20224;-68
2021/12/24 09:25:15;;;;;;;1.93;0.90;;;17.60;61.60;;;;;;10429275;28;20226;-69
2021/12/24 09:30:38;;;;;;;3.70;0.90;;;17.60;61.70;;;;;;10429094;28;20601;-69
2021/12/24 09:36:00;;;;;;;5.23;1.33;;;17.60;61.70;;;;;;10428544;28;20198;-66
2021/12/24 09:41:25;;;;;;;3.40;0.90;;;17.60;61.90;;;;;;10431503;28;20711;-66
2021/12/24 09:46:47;;;;;;;3.10;0.63;;;17.60;62.10;;;;;;10429493;28;20904;-66
2021/12/24 09:52:09;;;;;;;2.53;0.60;;;17.60;61.90;;;;;;10436420;28;20228;-67
2021/12/24 09:57:33;;;;;;;2.10;0.50;;;17.60;62.00;;;;;;10412589;28;20684;-67
2021/12/24 10:02:57;;;;;;;1.67;0.60;;;17.60;62.30;;;;;;10430265;28;20221;-65
2021/12/24 10:08:22;;;;;;;3.90;0.53;;;17.60;62.20;;;;;;10416942;28;20237;-65
2021/12/24 10:13:46;;;;;;;1.65;0.60;;;17.60;62.10;;;;;;10421362;28;20422;-68
2021/12/24 10:19:09;;;;;;;1.20;0.60;;;18.20;60.10;;;;;;10415714;28;20688;-69
2021/12/24 10:24:31;;;;;;;1.10;0.47;;;17.80;61.30;;;;;;10418316;28;20345;-69
2021/12/24 10:29:54;;;;;;;2.00;0.77;;;17.70;61.60;;;;;;10416701;28;20221;-64
2021/12/24 10:35:22;;;;;;;2.63;0.80;;;17.60;59.60;;;;;;10423259;28;20194;-68
2021/12/24 10:40:57;;;;;;;3.67;0.60;;;17.10;56.00;;;;;;10420354;28;20719;-68
2021/12/24 10:46:22;;;;;;;1.57;0.50;;;17.00;58.10;;;;;;10412448;28;20301;-67
2021/12/24 10:51:59;;;;;;;3.00;0.50;;;17.10;59.70;;;;;;10415939;28;20213;-67
2021/12/24 10:57:24;;;;;;;2.83;0.50;;;17.20;60.10;;;;;;10408236;28;20202;-68
2021/12/24 11:02:52;;;;;;;2.80;0.60;;;17.30;60.30;;;;;;10407867;28;20214;-68
2021/12/24 11:08:17;;;;;;;2.67;0.93;;;17.30;60.40;;;;;;10402786;28;20264;-68
2021/12/24 11:13:41;;;;;;;0.57;0.27;;;17.40;60.50;;;;;;10422600;28;20198;-67
2021/12/24 11:19:04;;;;;;;1.23;0.50;;;17.40;60.60;;;;;;10400104;28;20762;-67
2021/12/24 11:24:27;;;;;;;1.98;0.50;;;17.40;60.60;;;;;;10401713;28;20461;-68
2021/12/24 11:29:49;;;;;;;3.70;0.40;;;18.20;58.50;;;;;;10403815;28;20723;-68
2021/12/24 11:35:14;;;;;;;0.57;0.40;;;17.80;59.70;;;;;;10405833;28;20576;-68
2021/12/24 11:40:36;;;;;;;2.40;0.63;;;17.70;60.30;;;;;;10403919;28;20709;-68
2021/12/24 11:46:00;;;;;;;0.83;0.50;;;17.60;60.60;;;;;;10388090;28;20218;-68
2021/12/24 11:51:26;;;;;;;0.77;0.37;;;17.60;60.70;;;;;;10394968;28;20595;-68
2021/12/24 11:56:52;;;;;;;0.30;0.30;;;17.60;60.80;;;;;;10403199;28;20728;-68
2021/12/24 12:02:35;;;;;;;2.33;0.30;;;17.60;60.90;;;;;;10403342;28;20673;-68
2021/12/24 12:08:40;;;;;;;0.37;0.30;;;17.60;60.80;;;;;;10402121;28;20221;-68
2021/12/24 12:14:04;;;;;;;0.88;0.40;;;17.60;60.80;;;;;;10397756;28;20417;-67
2021/12/24 12:19:30;;;;;;;0.40;0.40;;;18.50;57.80;;;;;;10394203;28;20648;-67
2021/12/24 12:25:00;;;;;;;1.67;0.50;;;18.00;59.70;;;;;;10402825;28;20225;-67
2021/12/24 12:30:29;;;;;;;1.20;0.40;;;17.70;60.30;;;;;;10418988;28;20247;-67
2021/12/24 12:35:56;;;;;;;0.70;0.40;;;17.70;60.60;;;;;;10416664;28;20198;-67
2021/12/24 12:41:32;;;;;;;2.33;0.40;;;17.60;60.80;;;;;;10413716;28;20593;-68
2021/12/24 12:47:10;;;;;;;2.27;0.43;;;17.60;60.90;;;;;;10405453;28;20221;-67
2021/12/24 12:52:35;;;;;;;1.27;0.50;;;17.60;60.80;;;;;;10405534;28;20224;-68
2021/12/24 12:58:20;;;;;;;0.73;0.43;;;17.60;61.00;;;;;;10409604;28;20197;-68
2021/12/24 13:04:11;;;;;;;0.50;0.40;;;17.60;60.80;;;;;;10413169;28;20212;-67
2021/12/24 13:09:33;;;;;;;1.93;0.40;;;17.60;60.80;;;;;;10403554;28;20225;-66
2021/12/24 13:15:01;;;;;;;0.80;0.50;;;17.60;61.00;;;;;;10414738;28;20220;-66
2021/12/24 13:20:34;;;;;;;2.00;0.60;;;17.60;60.90;;;;;;10411704;28;20214;-67
2021/12/24 13:25:56;;;;;;;0.73;0.60;;;17.60;61.50;;;;;;10409537;28;20692;-66
2021/12/24 13:31:19;;;;;;;1.30;0.70;;;17.60;61.00;;;;;;10414162;28;20213;-66
2021/12/24 13:36:42;;;;;;;1.17;0.57;;;17.60;61.00;;;;;;10414247;28;20200;-66
2021/12/24 13:42:07;;;;;;;1.80;0.60;;;17.60;61.00;;;;;;10417780;28;20228;-68
2021/12/24 13:47:43;;;;;;;1.53;0.70;;;17.60;61.00;;;;;;10433251;28;20308;-68
2021/12/24 13:58:52;;;;;;;1.47;0.70;;;17.60;61.10;;;;;;10420790;28;20210;-67
2021/12/24 14:04:18;;;;;;;0.93;0.73;;;17.60;61.10;;;;;;10422044;28;20222;-67
2021/12/24 14:09:40;;;;;;;0.90;0.57;;;17.60;61.10;;;;;;10410733;28;20233;-66
2021/12/24 14:15:10;;;;;;;4.37;0.83;;;17.60;61.00;;;;;;10416981;28;20198;-66
2021/12/24 14:21:00;;;;;;;1.20;0.73;;;17.60;61.00;;;;;;10410649;28;20225;-67
2021/12/24 14:26:21;;;;;;;1.77;1.00;;;17.60;61.00;;;;;;10424530;28;20221;-66
2021/12/24 14:31:52;;;;;;;2.10;0.90;;;17.60;60.90;;;;;;10418845;28;20300;-66
2021/12/24 14:37:28;;;;;;;2.73;0.83;;;17.70;60.90;;;;;;10408125;28;20287;-66
2021/12/24 14:42:51;;;;;;;1.83;0.97;;;17.70;60.70;;;;;;10415044;28;20218;-66
2021/12/24 14:48:16;;;;;;;4.03;2.23;;;17.70;60.90;;;;;;10419042;28;20232;-66
2021/12/24 14:53:42;;;;;;;1.73;1.13;;;17.60;59.00;;;;;;10409297;28;20725;-66
2021/12/24 14:59:04;;;;;;;1.37;1.00;;;17.60;60.10;;;;;;10408918;28;20230;-66
2021/12/24 15:04:26;;;;;;;2.30;1.52;;;17.60;60.60;;;;;;10424464;28;20443;-67
2021/12/24 15:09:49;;;;;;;2.70;1.50;;;17.70;60.60;;;;;;10449940;28;20596;-67
2021/12/24 15:15:11;;;;;;;2.40;1.50;;;17.70;60.80;;;;;;10449622;28;20193;-67
2021/12/24 15:20:34;;;;;;;3.20;1.50;;;17.60;60.90;;;;;;10449424;28;20728;-67
2021/12/24 15:25:59;;;;;;;1.57;1.30;;;17.60;60.90;;;;;;10449301;28;20222;-67
2021/12/24 15:31:23;;;;;;;1.17;1.00;;;17.60;60.90;;;;;;10432488;28;20222;-67
2021/12/24 15:36:45;;;;;;;1.77;1.23;;;17.60;61.00;;;;;;10368471;28;20190;-67
2021/12/24 15:42:09;;;;;;;2.70;1.20;;;17.60;61.10;;;;;;10366842;28;20701;-68
2021/12/24 15:47:31;;;;;;;1.80;1.40;;;17.60;61.10;;;;;;10378358;28;20739;-67
2021/12/24 15:52:53;;;;;;;1.70;1.17;;;17.60;61.10;;;;;;10447360;28;20718;-67
2021/12/24 15:58:17;;;;;;;1.57;1.10;;;17.60;61.20;;;;;;10444613;28;20193;-67
2021/12/24 16:03:40;;;;;;;2.27;1.43;;;17.60;61.20;;;;;;10432595;28;20194;-68
2021/12/24 16:09:02;;;;;;;2.40;1.43;;;17.60;61.20;;;;;;10407787;28;20226;-67
2021/12/24 16:14:27;;;;;;;1.40;1.00;;;17.60;61.20;;;;;;10429993;28;20202;-67
2021/12/24 16:19:49;;;;;;;1.83;0.93;;;17.60;61.20;;;;;;10408636;28;20223;-67
2021/12/24 16:25:12;;;;;;;1.53;1.10;;;17.60;61.20;;;;;;10408064;28;20221;-68
2021/12/24 16:30:36;;;;;;;1.80;1.00;;;17.60;61.20;;;;;;10415411;28;20309;-66
2021/12/24 16:35:58;;;;;;;1.33;0.90;;;17.60;61.20;;;;;;10451089;28;20200;-67
2021/12/24 16:41:20;;;;;;;1.53;1.20;;;17.60;61.10;;;;;;10455747;28;20212;-67
2021/12/24 16:46:44;;;;;;;1.10;1.00;;;17.60;61.10;;;;;;10455846;28;20228;-68
2021/12/24 16:52:08;;;;;;;1.13;1.00;;;17.60;61.10;;;;;;10455629;28;20682;-67
2021/12/24 16:57:30;;;;;;;1.67;1.20;;;17.60;61.10;;;;;;10455115;28;20185;-67
2021/12/24 17:02:54;;;;;;;1.30;1.07;;;17.60;61.20;;;;;;10455185;28;20758;-67
2021/12/24 17:08:17;;;;;;;0.90;0.80;;;17.60;61.20;;;;;;10454702;28;20223;-67
2021/12/24 17:13:39;;;;;;;1.17;0.97;;;17.60;61.20;;;;;;10440257;28;20592;-67
2021/12/24 17:19:03;;;;;;;1.70;1.00;;;17.60;61.20;;;;;;10454219;28;20235;-67
2021/12/24 17:24:26;;;;;;;1.30;0.90;;;17.60;61.20;;;;;;10454715;28;20197;-67
2021/12/24 17:29:48;;;;;;;1.70;0.87;;;17.60;61.20;;;;;;10437895;28;20226;-67
2021/12/24 17:35:13;;;;;;;1.40;0.97;;;17.60;61.20;;;;;;10454678;28;20197;-67
2021/12/24 17:40:35;;;;;;;1.23;0.90;;;17.60;61.20;;;;;;10447811;28;20225;-67
2021/12/24 17:45:58;;;;;;;0.90;0.67;;;17.60;61.20;;;;;;10451382;28;20217;-67
2021/12/24 17:51:21;;;;;;;1.20;0.80;;;17.60;61.20;;;;;;10444248;28;20221;-67
2021/12/24 17:56:43;;;;;;;1.30;1.00;;;17.60;61.20;;;;;;10452871;28;20197;-67
2021/12/24 18:02:06;;;;;;;1.07;0.90;;;17.60;61.20;;;;;;10452760;28;20220;-67
2021/12/24 18:07:29;;;;;;;1.17;0.90;;;17.60;61.20;;;;;;10452312;28;20223;-67
2021/12/24 18:12:51;;;;;;;0.80;0.80;;;17.60;61.20;;;;;;10446233;28;20252;-67
2021/12/24 18:18:13;;;;;;;1.03;0.70;;;17.60;61.20;;;;;;10453207;28;20197;-67
2021/12/24 18:23:38;;;;;;;0.80;0.80;;;17.60;61.20;;;;;;10452365;28;20200;-67
2021/12/24 18:29:00;;;;;;;1.03;0.70;;;17.60;61.20;;;;;;10449915;28;20225;-67
2021/12/24 18:34:22;;;;;;;1.30;1.00;;;17.60;61.20;;;;;;10451448;28;20197;-67
2021/12/24 18:39:45;;;;;;;1.30;0.80;;;17.60;61.20;;;;;;10451998;28;20213;-67
2021/12/24 18:45:08;;;;;;;0.70;0.60;;;17.60;61.20;;;;;;10451055;28;20209;-67
2021/12/24 18:50:30;;;;;;;1.23;0.70;;;17.60;61.20;;;;;;10451041;28;20224;-67
2021/12/24 18:55:55;;;;;;;1.93;0.77;;;17.60;61.20;;;;;;10449555;28;20204;-67
2021/12/24 19:01:19;;;;;;;0.90;0.60;;;17.60;61.20;;;;;;10448173;28;20588;-67
2021/12/24 19:06:41;;;;;;;0.80;0.63;;;17.60;61.30;;;;;;10439060;28;20214;-67
2021/12/24 19:12:05;;;;;;;0.90;0.70;;;17.60;61.20;;;;;;10416466;28;20216;-67
2021/12/24 19:17:27;;;;;;;0.67;0.67;;;17.60;61.20;;;;;;10449872;28;20185;-67
2021/12/24 19:22:49;;;;;;;0.90;0.67;;;17.60;61.20;;;;;;10449401;28;20221;-67
2021/12/24 19:28:13;;;;;;;0.73;0.60;;;17.60;61.20;;;;;;10448958;28;20209;-67
2021/12/24 19:33:35;;;;;;;0.97;0.70;;;17.60;61.20;;;;;;10441157;28;20948;-67
2021/12/24 19:38:57;;;;;;;0.77;0.60;;;17.50;61.20;;;;;;10448673;28;20216;-68
2021/12/24 19:44:20;;;;;;;0.70;0.60;;;17.50;61.10;;;;;;10442504;28;20208;-68
2021/12/24 19:49:43;;;;;;;0.67;0.60;;;17.50;61.10;;;;;;10441764;28;20715;-68
2021/12/24 19:55:07;;;;;;;0.77;0.60;;;17.50;61.10;;;;;;10449025;28;20197;-67
2021/12/24 20:00:30;;;;;;;0.50;0.40;;;17.60;61.10;;;;;;10442701;28;20228;-67
2021/12/24 20:05:52;;;;;;;1.10;0.80;;;17.60;61.10;;;;;;10448028;28;20246;-67
2021/12/24 20:11:15;;;;;;;1.10;0.60;;;17.50;61.00;;;;;;10406280;28;20244;-68
2021/12/24 20:16:38;;;;;;;2.10;0.90;;;17.60;61.00;;;;;;10415816;28;20193;-67
2021/12/24 20:22:00;;;;;;;0.50;0.50;;;17.60;61.00;;;;;;10407510;28;20723;-67
2021/12/24 20:27:22;;;;;;;0.60;0.50;;;17.60;61.00;;;;;;10438576;28;20212;-68
2021/12/24 20:32:46;;;;;;;0.60;0.60;;;17.60;61.00;;;;;;10432179;28;20604;-67
2021/12/24 20:38:09;;;;;;;0.50;0.40;;;17.50;60.90;;;;;;10447397;28;20204;-68
2021/12/24 20:43:31;;;;;;;0.50;0.50;;;17.50;60.90;;;;;;10448359;28;20193;-68
2021/12/24 20:48:55;;;;;;;0.60;0.60;;;17.50;60.90;;;;;;10446364;28;20225;-67
2021/12/24 20:54:19;;;;;;;0.67;0.60;;;17.50;60.90;;;;;;10447921;28;20660;-67
2021/12/24 20:59:43;;;;;;;0.60;0.60;;;17.50;60.90;;;;;;10447639;28;20217;-67
2021/12/24 21:05:07;;;;;;;0.70;0.53;;;17.50;60.90;;;;;;10405656;28;20202;-67
2021/12/24 21:10:30;;;;;;;0.53;0.50;;;17.60;60.90;;;;;;10438849;28;20228;-67
2021/12/24 21:15:54;;;;;;;0.50;0.40;;;17.50;60.80;;;;;;10447479;28;20197;-67
2021/12/24 21:21:18;;;;;;;0.47;0.47;;;17.60;60.90;;;;;;10449382;28;20221;-68
2021/12/24 21:26:42;;;;;;;0.67;0.50;;;17.60;60.90;;;;;;10455067;28;20227;-68
2021/12/24 21:32:05;;;;;;;0.80;0.40;;;17.50;60.80;;;;;;10446356;28;20221;-68
2021/12/24 21:37:29;;;;;;;1.00;0.50;;;17.50;60.80;;;;;;10452826;28;20204;-68
2021/12/24 21:42:53;;;;;;;0.80;0.60;;;17.60;60.80;;;;;;10453278;28;20576;-67
2021/12/24 21:48:18;;;;;;;0.50;0.43;;;17.50;60.70;;;;;;10452738;28;20339;-68
2021/12/24 21:53:43;;;;;;;0.40;0.40;;;17.60;60.80;;;;;;10442072;28;20739;-68
2021/12/24 21:59:06;;;;;;;0.80;0.50;;;17.50;60.70;;;;;;10450501;28;20213;-67
2021/12/24 22:04:42;;;;;;;0.93;0.50;;;17.50;60.70;;;;;;10439932;28;20278;-68
2021/12/24 22:10:06;;;;;;;0.87;0.50;;;17.50;60.70;;;;;;10420471;28;20352;-67
2021/12/24 22:15:28;;;;;;;1.00;0.50;;;17.50;60.60;;;;;;10410419;28;20202;-67
2021/12/24 22:20:51;;;;;;;0.50;0.50;;;17.50;60.50;;;;;;10412563;28;20236;-67
2021/12/24 22:26:16;;;;;;;0.30;0.30;;;17.50;60.50;;;;;;10406566;28;20233;-68
2021/12/24 22:31:38;;;;;;;1.77;0.60;;;17.50;60.40;;;;;;10408803;28;20225;-68
2021/12/24 22:37:01;;;;;;;0.53;0.40;;;17.50;60.40;;;;;;10410464;28;20201;-66
2021/12/24 22:42:24;;;;;;;1.30;0.50;;;17.50;60.30;;;;;;10412172;28;20217;-68
2021/12/24 22:47:46;;;;;;;0.53;0.40;;;17.50;60.30;;;;;;10407879;28;20692;-68
2021/12/24 22:53:09;;;;;;;0.83;0.47;;;17.50;60.20;;;;;;10412411;28;20733;-67
2021/12/24 22:58:32;;;;;;;0.70;0.50;;;17.50;60.20;;;;;;10407117;28;20202;-67
2021/12/24 23:03:54;;;;;;;0.73;0.50;;;17.50;60.40;;;;;;10406940;28;20186;-67
2021/12/24 23:09:16;;;;;;;0.70;0.50;;;17.50;60.30;;;;;;10410205;28;20597;-67
2021/12/24 23:14:40;;;;;;;0.37;0.30;;;17.50;60.30;;;;;;10438257;28;20193;-67
2021/12/24 23:20:03;;;;;;;0.43;0.30;;;17.50;60.20;;;;;;10449125;28;20216;-67
2021/12/24 23:25:25;;;;;;;0.30;0.30;;;17.50;60.10;;;;;;10450369;28;20189;-67
2021/12/24 23:30:49;;;;;;;1.40;0.50;;;17.50;60.10;;;;;;10441437;28;20690;-67
2021/12/24 23:36:11;;;;;;;0.70;0.40;;;17.50;60.10;;;;;;10443947;28;20193;-67
2021/12/24 23:41:33;;;;;;;0.80;0.63;;;17.40;60.10;;;;;;10407953;28;20218;-67
2021/12/24 23:47:05;;;;;;;0.70;0.60;;;17.40;60.00;;;;;;10448040;28;20205;-66
2021/12/24 23:52:28;;;;;;;0.97;0.43;;;17.50;60.10;;;;;;10448563;28;20231;-67
2021/12/24 23:57:52;;;;;;;0.97;0.60;;;17.50;60.00;;;;;;10447718;28;20197;-67
